Time;durP1;ratioP1;P1;durP2;ratioP2;P2;SDS_P1;SDS_P2;PMS_P1;PMS_P2;Temp;Humidity;BMP_temperature;BMP_pressure;BME280_temperature;BME280_humidity;BME280_pressure;Samples;Min_cycle;Max_cycle;Signal;HPM_P1;HPM_P2
2022/07/15 00:01:24;;;;;;;;;;;;;;;-144.99;88.27;52307.47;4989554;28;19930;-79
2022/07/15 00:03:51;;;;;;;;;;;;;;;-144.99;88.14;52309.50;4990516;28;19961;-81
2022/07/15 00:06:17;;;;;;;;;;;;;;;-144.99;87.90;52301.34;4990872;28;19961;-79
2022/07/15 00:08:44;;;;;;;;;;;;;;;-144.99;87.71;52283.00;4990746;28;19930;-80
2022/07/15 00:11:10;;;;;;;;;;;;;;;-144.99;87.81;52313.56;4991626;28;20006;-81
2022/07/15 00:13:38;;;;;;;;;;;;;;;-144.99;87.71;52283.00;4988093;28;19926;-77
2022/07/15 00:16:05;;;;;;;;;;;;;;;-144.99;87.80;52264.66;4989103;28;19926;-80
2022/07/15 00:18:31;;;;;;;;;;;;;;;-144.99;87.79;52299.31;4988431;28;19995;-80
2022/07/15 00:20:58;;;;;;;;;;;;;;;-144.99;87.54;52293.19;4988030;28;20328;-80
2022/07/15 00:23:24;;;;;;;;;;;;;;;-144.99;87.76;52301.34;4987001;28;20336;-78
2022/07/15 00:25:51;;;;;;;;;;;;;;;-144.99;87.74;52301.34;4987760;28;19932;-79
2022/07/15 00:28:17;;;;;;;;;;;;;;;-144.99;87.59;52338.03;4987346;28;20002;-81
2022/07/15 00:30:45;;;;;;;;;;;;;;;-144.99;87.52;52285.03;4987520;28;19925;-80
2022/07/15 00:33:12;;;;;;;;;;;;;;;-144.99;87.33;52305.41;4986652;28;19926;-78
2022/07/15 00:35:39;;;;;;;;;;;;;;;-144.99;86.33;52252.44;4987451;28;19926;-79
2022/07/15 00:38:07;;;;;;;;;;;;;;;-144.99;85.75;52285.03;4984326;28;19930;-81
2022/07/15 00:40:40;;;;;;;;;;;;;;;-144.99;85.46;52305.41;4989123;28;19995;-79
2022/07/15 00:43:06;;;;;;;;;;;;;;;-144.99;85.54;52313.56;4989695;28;19934;-78
2022/07/15 00:45:33;;;;;;;;;;;;;;;-144.99;85.16;52301.34;4990677;28;19930;-77
2022/07/15 00:48:01;;;;;;;;;;;;;;;-144.99;84.73;52317.66;4991168;28;19972;-77
2022/07/15 00:50:28;;;;;;;;;;;;;;;-144.99;84.53;52272.81;4991839;28;20016;-81
2022/07/15 00:52:56;;;;;;;;;;;;;;;-144.99;84.20;52264.66;5002275;28;19930;-82
2022/07/15 00:55:23;;;;;;;;;;;;;;;-144.99;83.91;52289.13;5012148;28;19925;-81
2022/07/15 00:57:50;;;;;;;;;;;;;;;-144.99;83.58;52289.13;5018296;28;19933;-78
2022/07/15 01:00:17;;;;;;;;;;;;;;;-144.99;83.18;52262.63;5004508;28;19950;-76
2022/07/15 01:02:50;;;;;;;;;;;;;;;-144.99;83.20;52242.22;5001460;28;19964;-76
2022/07/15 01:05:19;;;;;;;;;;;;;;;-144.99;82.92;52301.34;5002813;28;19930;-76
2022/07/15 01:07:46;;;;;;;;;;;;;;;-144.99;82.53;52264.66;5004744;28;19926;-77
2022/07/15 01:10:12;;;;;;;;;;;;;;;-144.99;81.97;52285.03;4998137;28;20117;-76
2022/07/15 01:12:40;;;;;;;;;;;;;;;-144.99;81.44;52293.19;5002051;28;19937;-77
2022/07/15 01:15:07;;;;;;;;;;;;;;;-144.99;81.38;52293.19;5004477;28;19926;-76
2022/07/15 01:17:33;;;;;;;;;;;;;;;-144.99;81.28;52285.03;4999414;28;19926;-76
2022/07/15 01:20:00;;;;;;;;;;;;;;;-144.99;81.08;52313.56;4991471;28;19993;-76
2022/07/15 01:22:28;;;;;;;;;;;;;;;-144.99;80.91;52299.31;4989541;28;19926;-76
2022/07/15 01:24:54;;;;;;;;;;;;;;;-144.99;80.63;52268.72;4990039;28;19926;-76
2022/07/15 01:27:21;;;;;;;;;;;;;;;-144.99;80.25;52289.13;4990042;28;19934;-77
2022/07/15 01:29:48;;;;;;;;;;;;;;;-144.99;80.41;52285.03;4989698;28;19930;-78
2022/07/15 01:32:14;;;;;;;;;;;;;;;-144.99;80.48;52303.38;4988369;28;19926;-77
2022/07/15 01:34:41;;;;;;;;;;;;;;;-144.99;80.27;52313.56;4990447;28;20058;-77
2022/07/15 01:37:07;;;;;;;;;;;;;;;-144.99;80.35;52289.13;4990146;28;19933;-77
2022/07/15 01:39:35;;;;;;;;;;;;;;;-144.99;80.00;52309.50;4989537;28;19926;-77
2022/07/15 01:42:02;;;;;;;;;;;;;;;-144.99;79.72;52264.66;4988871;28;20013;-76
2022/07/15 01:44:28;;;;;;;;;;;;;;;-144.99;79.81;52301.34;4990235;28;19930;-75
2022/07/15 01:46:54;;;;;;;;;;;;;;;-144.99;81.53;52268.72;4990691;28;19926;-74
2022/07/15 01:49:25;;;;;;;;;;;;;;;-144.99;84.52;52264.66;4994839;28;20025;-77
2022/07/15 01:51:52;;;;;;;;;;;;;;;-144.99;86.58;52276.88;4998218;28;19930;-81
2022/07/15 01:54:18;;;;;;;;;;;;;;;-144.99;88.39;52301.34;5012076;28;20089;-80
2022/07/15 01:56:46;;;;;;;;;;;;;;;-144.99;90.40;52280.97;4992585;28;20017;-77
2022/07/15 01:59:13;;;;;;;;;;;;;;;-144.99;90.88;52264.66;4990660;28;19930;-77
2022/07/15 02:01:39;;;;;;;;;;;;;;;-144.99;93.10;52313.56;4987917;28;20312;-77
2022/07/15 02:04:06;;;;;;;;;;;;;;;-144.99;93.34;52346.19;4989175;28;19926;-77
2022/07/15 02:06:32;;;;;;;;;;;;;;;-144.99;93.80;52317.66;4988720;28;19925;-76
2022/07/15 02:08:59;;;;;;;;;;;;;;;-144.99;94.00;52276.88;4989925;28;19926;-77
2022/07/15 02:11:25;;;;;;;;;;;;;;;-144.99;94.61;52268.72;4998436;28;19926;-78
2022/07/15 02:13:58;;;;;;;;;;;;;;;-144.99;96.10;52299.31;4989730;28;19926;-77
2022/07/15 02:16:24;;;;;;;;;;;;;;;-144.99;97.02;52280.97;4989375;28;19976;-77
2022/07/15 02:18:51;;;;;;;;;;;;;;;-144.99;97.64;52301.34;4990107;28;19946;-77
2022/07/15 02:21:17;;;;;;;;;;;;;;;-144.99;97.82;52301.34;4990524;28;19941;-77
2022/07/15 02:23:44;;;;;;;;;;;;;;;-144.99;98.35;52305.41;4988826;28;19929;-77
2022/07/15 02:26:10;;;;;;;;;;;;;;;-144.99;98.70;52315.59;4989184;28;19953;-76
2022/07/15 02:28:37;;;;;;;;;;;;;;;-144.99;99.33;52329.88;4990996;28;19926;-77
2022/07/15 02:31:05;;;;;;;;;;;;;;;-144.99;99.24;52293.19;4986733;28;19971;-76
2022/07/15 02:33:31;;;;;;;;;;;;;;;-144.99;99.13;52285.03;4990808;28;19929;-74
2022/07/15 02:35:58;;;;;;;;;;;;;;;-144.99;99.24;52264.66;4991303;28;19987;-76
2022/07/15 02:38:24;;;;;;;;;;;;;;;-144.99;99.39;52287.06;4990137;28;19930;-76
2022/07/15 02:40:51;;;;;;;;;;;;;;;-144.99;99.55;52307.47;4978147;28;19937;-78
2022/07/15 02:43:18;;;;;;;;;;;;;;;-144.99;99.17;52319.69;4989784;28;19991;-76
2022/07/15 02:45:44;;;;;;;;;;;;;;;-144.99;99.53;52305.41;4990081;28;19930;-76
2022/07/15 02:48:12;;;;;;;;;;;;;;;-144.99;99.71;52293.19;4990358;28;20012;-75
2022/07/15 02:50:38;;;;;;;;;;;;;;;-144.99;99.51;52266.69;4989555;28;19930;-75
2022/07/15 02:53:05;;;;;;;;;;;;;;;-144.99;99.37;52309.50;4990078;28;19983;-76
2022/07/15 02:55:32;;;;;;;;;;;;;;;-144.99;99.03;52285.03;4989886;28;20002;-76
2022/07/15 02:57:58;;;;;;;;;;;;;;;-144.99;98.94;52244.28;4990776;28;20050;-76
2022/07/15 03:00:25;;;;;;;;;;;;;;;-144.99;98.67;52313.56;4989900;28;19934;-76
2022/07/15 03:02:52;;;;;;;;;;;;;;;-144.99;98.44;52278.91;4988413;28;20173;-76
2022/07/15 03:05:20;;;;;;;;;;;;;;;-144.99;98.04;52305.41;4989784;28;19932;-76
2022/07/15 03:07:46;;;;;;;;;;;;;;;-144.99;97.72;52313.56;4989306;28;19933;-76
2022/07/15 03:10:13;;;;;;;;;;;;;;;-144.99;97.60;52264.66;4977409;28;19926;-75
2022/07/15 03:12:40;;;;;;;;;;;;;;;-144.99;97.41;52285.03;4999620;28;19926;-75
2022/07/15 03:15:07;;;;;;;;;;;;;;;-144.99;96.35;52305.41;4990471;28;19925;-76
2022/07/15 03:17:33;;;;;;;;;;;;;;;-144.99;95.49;52305.41;4990341;28;19929;-76
2022/07/15 03:20:00;;;;;;;;;;;;;;;-144.99;94.50;52276.88;4990629;28;19926;-75
2022/07/15 03:22:28;;;;;;;;;;;;;;;-144.99;93.15;52252.44;4991567;28;19979;-76
2022/07/15 03:24:55;;;;;;;;;;;;;;;-144.99;92.57;52285.03;4990090;28;20041;-75
2022/07/15 03:27:21;;;;;;;;;;;;;;;-144.99;91.25;52301.34;4989220;28;19994;-76
2022/07/15 03:29:49;;;;;;;;;;;;;;;-144.99;91.21;52309.50;4989864;28;19926;-78
2022/07/15 03:32:16;;;;;;;;;;;;;;;-144.99;90.84;52301.34;4986659;28;19941;-76
2022/07/15 03:34:43;;;;;;;;;;;;;;;-144.99;91.70;52299.31;4989684;28;19933;-76
2022/07/15 03:37:11;;;;;;;;;;;;;;;-144.99;91.14;52303.38;4989630;28;19957;-76
2022/07/15 03:39:38;;;;;;;;;;;;;;;-144.99;90.33;52289.13;4989259;28;20016;-75
2022/07/15 03:42:05;;;;;;;;;;;;;;;-144.99;88.14;52299.31;4995418;28;19968;-75
2022/07/15 03:44:31;;;;;;;;;;;;;;;-144.99;86.81;52289.13;4989164;28;19954;-77
2022/07/15 03:46:58;;;;;;;;;;;;;;;-144.99;86.59;52283.00;4988948;28;19994;-76
2022/07/15 03:49:24;;;;;;;;;;;;;;;-144.99;86.10;52293.19;4987417;28;19940;-76
2022/07/15 03:51:51;;;;;;;;;;;;;;;-144.99;85.02;52329.88;4986637;28;19933;-77
2022/07/15 03:54:17;;;;;;;;;;;;;;;-144.99;83.03;52289.13;4987525;28;20008;-75
2022/07/15 03:56:47;;;;;;;;;;;;;;;-144.99;80.68;52301.34;4987286;28;20302;-77
2022/07/15 03:59:14;;;;;;;;;;;;;;;-144.99;77.78;52283.00;4986920;28;19926;-77
2022/07/15 04:01:40;;;;;;;;;;;;;;;-144.99;77.56;52305.41;4985733;28;19926;-77
2022/07/15 04:04:07;;;;;;;;;;;;;;;-144.99;77.07;52268.72;4985471;28;19983;-77
2022/07/15 04:06:33;;;;;;;;;;;;;;;-144.99;77.23;52285.03;4988328;28;19964;-77
2022/07/15 04:09:00;;;;;;;;;;;;;;;-144.99;77.05;52309.50;4988322;28;19971;-77
2022/07/15 04:11:26;;;;;;;;;;;;;;;-144.99;77.16;52280.97;4985409;28;19933;-76
2022/07/15 04:13:54;;;;;;;;;;;;;;;-144.99;76.80;52309.50;4987456;28;19930;-76
2022/07/15 04:16:21;;;;;;;;;;;;;;;-144.99;76.98;52293.19;4990707;28;19926;-78
2022/07/15 04:18:47;;;;;;;;;;;;;;;-144.99;76.95;52270.78;4990553;28;20013;-78
2022/07/15 04:21:14;;;;;;;;;;;;;;;-144.99;77.64;52293.19;4983855;28;19926;-75
2022/07/15 04:23:40;;;;;;;;;;;;;;;-144.99;77.06;52276.88;4989990;28;19961;-74
2022/07/15 04:26:07;;;;;;;;;;;;;;;-144.99;78.06;52293.19;5021611;23;19970;-70
2022/07/15 04:28:33;;;;;;;;;;;;;;;-144.99;77.89;52309.50;5069592;28;19928;-70
2022/07/15 04:31:01;;;;;;;;;;;;;;;-144.99;78.03;52321.72;5069497;28;20362;-70
2022/07/15 04:33:28;;;;;;;;;;;;;;;-144.99;78.66;52293.19;5072758;28;19924;-70
2022/07/15 04:35:56;;;;;;;;;;;;;;;-144.99;78.66;52293.19;5069638;28;19924;-70
2022/07/15 04:38:23;;;;;;;;;;;;;;;-144.99;80.02;52272.81;5060534;28;19928;-70
2022/07/15 04:40:49;;;;;;;;;;;;;;;-144.99;80.64;52268.72;5055406;28;19970;-70
2022/07/15 04:43:15;;;;;;;;;;;;;;;-144.99;80.66;52260.56;5052093;28;19960;-70
2022/07/15 04:45:42;;;;;;;;;;;;;;;-144.99;81.05;52301.34;5063995;28;19929;-70
2022/07/15 04:50:51;;;;;;;;;;;;;;;-144.99;82.33;52291.16;5050382;28;20019;-72
2022/07/15 04:53:18;;;;;;;;;;;;;;;-144.99;82.40;52309.50;5060119;28;19928;-72
2022/07/15 04:55:45;;;;;;;;;;;;;;;-144.99;82.76;52256.50;5066495;28;19985;-71
2022/07/15 04:58:14;;;;;;;;;;;;;;;-144.99;82.81;52258.53;5062425;28;19933;-72
2022/07/15 05:00:40;;;;;;;;;;;;;;;-144.99;83.68;52301.34;5048748;28;20399;-72
2022/07/15 05:03:07;;;;;;;;;;;;;;;-144.99;83.97;52266.69;4351380;28;10000717;-72
2022/07/15 05:05:35;;;;;;;;;;;;;;;-144.99;83.45;52272.81;5053695;28;19983;-71
2022/07/15 05:08:01;;;;;;;;;;;;;;;-144.99;83.20;52280.97;5057624;28;19928;-73
2022/07/15 05:10:28;;;;;;;;;;;;;;;-144.99;83.85;52295.22;5043515;28;19935;-72
2022/07/15 05:12:54;;;;;;;;;;;;;;;-144.99;83.81;52278.91;5064614;28;19982;-72
2022/07/15 05:15:21;;;;;;;;;;;;;;;-144.99;84.82;52280.97;5053599;28;20151;-72
2022/07/15 05:17:47;;;;;;;;;;;;;;;-144.99;85.23;52268.72;5050332;28;20164;-72
2022/07/15 05:20:14;;;;;;;;;;;;;;;-144.99;85.67;52303.38;5054813;28;19929;-72
2022/07/15 05:22:42;;;;;;;;;;;;;;;-144.99;86.58;52272.81;5047597;28;19932;-72
2022/07/15 05:25:09;;;;;;;;;;;;;;;-144.99;86.47;52309.50;5047695;28;19928;-72
2022/07/15 05:27:36;;;;;;;;;;;;;;;-144.99;86.51;52285.03;5047539;28;19935;-73
2022/07/15 05:30:02;;;;;;;;;;;;;;;-144.99;86.49;52293.19;5049828;28;19925;-72
2022/07/15 05:32:29;;;;;;;;;;;;;;;-144.99;86.02;52299.31;5057602;28;19931;-74
2022/07/15 05:34:56;;;;;;;;;;;;;;;-144.99;85.44;52280.97;5056184;28;19940;-72
2022/07/15 05:37:22;;;;;;;;;;;;;;;-144.99;85.16;52272.81;5053492;28;20471;-73
2022/07/15 05:39:57;;;;;;;;;;;;;;;-144.99;84.36;52299.31;5055495;28;19929;-72
2022/07/15 05:42:24;;;;;;;;;;;;;;;-144.99;82.55;52297.25;5051437;28;19976;-71
2022/07/15 05:44:51;;;;;;;;;;;;;;;-144.99;81.91;52252.44;5056718;28;19928;-73
2022/07/15 05:47:17;;;;;;;;;;;;;;;-144.99;80.47;52272.81;5054893;28;20408;-72
2022/07/15 05:49:44;;;;;;;;;;;;;;;-144.99;80.20;52285.03;5051888;28;19924;-72
2022/07/15 05:52:10;;;;;;;;;;;;;;;-144.99;79.40;52264.66;5049796;28;19964;-72
2022/07/15 05:54:37;;;;;;;;;;;;;;;-144.99;79.26;52276.88;5060367;28;20368;-72
2022/07/15 05:57:05;;;;;;;;;;;;;;;-144.99;78.44;52256.50;5059062;28;19986;-72
2022/07/15 05:59:32;;;;;;;;;;;;;;;-144.99;78.56;52256.50;5042615;28;19925;-72
2022/07/15 06:01:58;;;;;;;;;;;;;;;-144.99;78.66;52285.03;5048728;28;19964;-72
2022/07/15 06:04:26;;;;;;;;;;;;;;;-144.99;77.48;52280.97;5046078;28;19968;-72
2022/07/15 06:06:53;;;;;;;;;;;;;;;-144.99;77.50;52244.28;5051934;28;19939;-72
2022/07/15 06:09:19;;;;;;;;;;;;;;;-144.99;77.24;52297.25;5055382;28;20409;-71
2022/07/15 06:11:46;;;;;;;;;;;;;;;-144.99;77.19;52270.78;5055443;28;19929;-72
2022/07/15 06:14:14;;;;;;;;;;;;;;;-144.99;76.94;52250.38;5055867;28;19932;-73
2022/07/15 06:16:40;;;;;;;;;;;;;;;-144.99;76.76;52236.13;5053331;28;19935;-72
2022/07/15 06:19:08;;;;;;;;;;;;;;;-144.99;76.77;52256.50;5048025;28;19954;-73
2022/07/15 06:21:35;;;;;;;;;;;;;;;-144.99;76.42;52244.28;5056267;28;19928;-72
2022/07/15 06:24:01;;;;;;;;;;;;;;;-144.99;76.38;52276.88;5051979;28;19982;-72
2022/07/15 06:26:28;;;;;;;;;;;;;;;-144.99;75.28;52260.56;5048137;28;19924;-72
2022/07/15 06:28:55;;;;;;;;;;;;;;;-144.99;74.60;52264.66;5046288;28;19929;-73
2022/07/15 06:31:22;;;;;;;;;;;;;;;-144.99;74.82;52236.13;5051220;28;20387;-74
2022/07/15 06:33:49;;;;;;;;;;;;;;;-144.99;74.37;52240.19;5054946;28;19982;-73
2022/07/15 06:36:15;;;;;;;;;;;;;;;-144.99;72.65;52252.44;5053163;28;20438;-75
2022/07/15 06:38:42;;;;;;;;;;;;;;;-144.99;71.92;52272.81;5042926;28;19940;-72
2022/07/15 06:41:08;;;;;;;;;;;;;;;-144.99;72.49;52278.91;5047635;28;19924;-73
2022/07/15 06:43:35;;;;;;;;;;;;;;;-144.99;71.91;52276.88;5058469;28;19932;-74
2022/07/15 06:46:05;;;;;;;;;;;;;;;-144.99;71.44;52252.44;4843964;28;10000257;-73
2022/07/15 06:48:33;;;;;;;;;;;;;;;-144.99;71.65;52268.72;5038893;28;20665;-73
2022/07/15 06:51:00;;;;;;;;;;;;;;;-144.99;71.76;52254.47;5059223;28;19964;-74
2022/07/15 06:53:26;;;;;;;;;;;;;;;-144.99;71.67;52256.50;5050605;28;20426;-74
2022/07/15 06:55:53;;;;;;;;;;;;;;;-144.99;70.93;52246.31;5046268;28;20396;-73
2022/07/15 06:58:19;;;;;;;;;;;;;;;-144.99;70.01;52227.97;5048737;28;19928;-73
2022/07/15 07:00:46;;;;;;;;;;;;;;;-144.99;69.27;52285.03;5050659;28;19924;-73
2022/07/15 07:03:12;;;;;;;;;;;;;;;-144.99;69.31;52266.69;5053773;28;19924;-73
2022/07/15 07:05:41;;;;;;;;;;;;;;;-144.99;69.11;52278.91;5059021;28;19931;-73
2022/07/15 07:08:07;;;;;;;;;;;;;;;-144.99;68.56;52236.13;5056132;28;19967;-73
2022/07/15 07:10:34;;;;;;;;;;;;;;;-144.99;68.70;52256.50;5046627;28;20062;-73
2022/07/15 07:13:00;;;;;;;;;;;;;;;-144.99;68.87;52287.06;5049515;28;20384;-74
2022/07/15 07:15:27;;;;;;;;;;;;;;;-144.99;67.50;52227.97;5053808;28;19937;-74
2022/07/15 07:17:54;;;;;;;;;;;;;;;-144.99;65.95;52219.81;5055459;28;19928;-73
2022/07/15 07:20:20;;;;;;;;;;;;;;;-144.99;65.89;52223.88;5052113;28;20031;-75
2022/07/15 07:22:48;;;;;;;;;;;;;;;-144.99;65.23;52215.75;5061804;28;19960;-75
2022/07/15 07:25:15;;;;;;;;;;;;;;;-144.99;64.71;52266.69;5055092;28;19929;-74
2022/07/15 07:27:42;;;;;;;;;;;;;;;-144.99;64.39;52240.19;5045662;28;19925;-74
2022/07/15 07:30:09;;;;;;;;;;;;;;;-144.99;64.46;52252.44;5048756;28;19924;-74
2022/07/15 07:32:35;;;;;;;;;;;;;;;-144.99;64.41;52223.88;5058890;28;20284;-73
2022/07/15 07:35:02;;;;;;;;;;;;;;;-144.99;64.35;52232.03;5055233;28;20412;-73
2022/07/15 07:37:28;;;;;;;;;;;;;;;-144.99;65.41;52262.63;5051043;28;19933;-73
2022/07/15 07:39:56;;;;;;;;;;;;;;;-144.99;68.61;52244.28;5062977;28;19940;-73
2022/07/15 07:42:23;;;;;;;;;;;;;;;-144.99;72.35;52252.44;5055849;28;19975;-73
2022/07/15 07:44:50;;;;;;;;;;;;;;;-144.99;73.13;52258.53;5054362;28;19935;-73
2022/07/15 07:47:16;;;;;;;;;;;;;;;-144.99;76.33;52276.88;5042917;28;19925;-73
2022/07/15 07:49:44;;;;;;;;;;;;;;;-144.99;78.20;52276.88;5054044;28;19978;-73
2022/07/15 07:52:10;;;;;;;;;;;;;;;-144.99;80.11;52276.88;5054952;28;19999;-73
2022/07/15 07:54:37;;;;;;;;;;;;;;;-144.99;81.05;52289.13;5050345;28;19944;-73
2022/07/15 07:57:05;;;;;;;;;;;;;;;-144.99;82.18;52260.56;5042953;28;19941;-73
2022/07/15 07:59:32;;;;;;;;;;;;;;;-144.99;82.27;52260.56;5050877;28;19938;-73
2022/07/15 08:01:58;;;;;;;;;;;;;;;-144.99;82.75;52256.50;5055185;28;19963;-74
2022/07/15 08:04:25;;;;;;;;;;;;;;;-144.99;81.86;52244.28;5048437;28;19932;-73
2022/07/15 08:06:52;;;;;;;;;;;;;;;-144.99;81.95;52256.50;5043939;28;19933;-73
2022/07/15 08:09:18;;;;;;;;;;;;;;;-144.99;81.32;52232.03;5049006;28;19992;-74
2022/07/15 08:11:45;;;;;;;;;;;;;;;-144.99;80.90;52256.50;5050183;28;20018;-73
2022/07/15 08:14:13;;;;;;;;;;;;;;;-144.99;78.29;52227.97;5055715;28;20416;-74
2022/07/15 08:16:42;;;;;;;;;;;;;;;-144.99;73.13;52197.41;5047354;28;19928;-74
2022/07/15 08:19:09;;;;;;;;;;;;;;;-144.99;70.16;52201.47;5061138;28;19931;-74
2022/07/15 08:21:35;;;;;;;;;;;;;;;-144.99;65.34;52215.75;5054634;28;19928;-74
2022/07/15 08:24:02;;;;;;;;;;;;;;;-144.99;63.90;52252.44;5045245;28;20399;-74
2022/07/15 08:26:28;;;;;;;;;;;;;;;-144.99;62.12;52219.81;5049874;28;19947;-74
2022/07/15 08:28:55;;;;;;;;;;;;;;;-144.99;60.95;52199.44;5061507;28;19997;-74
2022/07/15 08:31:23;;;;;;;;;;;;;;;-144.99;60.00;52227.97;5044416;28;20320;-74
2022/07/15 08:33:49;;;;;;;;;;;;;;;-144.99;59.58;52195.34;5048483;28;19983;-74
2022/07/15 08:36:16;;;;;;;;;;;;;;;-144.99;59.29;52219.81;5055399;28;20482;-73
2022/07/15 08:38:42;;;;;;;;;;;;;;;-144.99;61.41;52232.03;5057272;28;19940;-73
2022/07/15 08:41:09;;;;;;;;;;;;;;;-144.99;63.79;52240.19;5047890;28;19980;-73
2022/07/15 08:43:36;;;;;;;;;;;;;;;-144.99;65.05;52232.03;5045731;28;19940;-74
2022/07/15 08:46:03;;;;;;;;;;;;;;;-144.99;65.73;52248.34;5053859;28;19925;-74
2022/07/15 08:48:34;;;;;;;;;;;;;;;-144.99;66.51;52223.88;5043594;28;19928;-74
2022/07/15 08:51:03;;;;;;;;;;;;;;;-144.99;65.98;52215.75;5047473;28;19951;-74
2022/07/15 08:53:30;;;;;;;;;;;;;;;-144.99;65.57;52223.88;5054594;28;19960;-75
2022/07/15 08:55:57;;;;;;;;;;;;;;;-144.99;64.88;52227.97;5052861;28;20571;-73
2022/07/15 08:58:23;;;;;;;;;;;;;;;-144.99;63.67;52183.13;5053741;28;19929;-73
2022/07/15 09:00:50;;;;;;;;;;;;;;;-144.99;63.20;52191.28;5053482;28;20493;-73
2022/07/15 09:03:16;;;;;;;;;;;;;;;-144.99;61.86;52177.00;5050835;28;19935;-74
2022/07/15 09:05:44;;;;;;;;;;;;;;;-144.99;59.29;52177.00;5054917;28;19924;-73
2022/07/15 09:08:11;;;;;;;;;;;;;;;-144.99;58.24;52174.97;5059186;28;19924;-73
2022/07/15 09:10:42;;;;;;;;;;;;;;;-144.99;55.67;52177.00;5042829;28;19924;-72
2022/07/15 09:13:09;;;;;;;;;;;;;;;-144.99;53.92;52154.59;5046562;28;20354;-74
2022/07/15 09:15:36;;;;;;;;;;;;;;;-144.99;53.87;52158.66;5058545;28;19931;-73
2022/07/15 09:18:13;;;;;;;;;;;;;;;-144.99;53.27;52101.59;5058771;28;19929;-73
2022/07/15 09:20:40;;;;;;;;;;;;;;;-144.99;53.11;52117.91;5053041;28;19929;-74
2022/07/15 09:23:09;;;;;;;;;;;;;;;-144.99;50.91;52146.44;5048781;28;20465;-73
2022/07/15 09:25:35;;;;;;;;;;;;;;;-144.99;48.50;52130.13;5045683;28;19929;-73
2022/07/15 09:28:03;;;;;;;;;;;;;;;-144.99;47.66;52101.59;5052727;28;19928;-75
2022/07/15 09:36:04;;;;;;;;;;;;;;;-144.99;45.57;52121.97;5052693;28;20308;-73
2022/07/15 09:38:35;;;;;;;;;;;;;;;-144.99;45.41;52138.28;5041680;28;19929;-74
2022/07/15 09:41:03;;;;;;;;;;;;;;;-144.99;44.96;52117.91;5054484;28;20070;-74
2022/07/15 09:43:29;;;;;;;;;;;;;;;-144.99;44.61;52148.47;5047327;28;19982;-73
2022/07/15 09:46:00;;;;;;;;;;;;;;;-144.99;44.33;52166.81;5055865;28;19928;-74
2022/07/15 09:48:28;;;;;;;;;;;;;;;-144.99;44.32;52146.44;5055718;28;20020;-74
2022/07/15 09:50:59;;;;;;;;;;;;;;;-144.99;45.10;52154.59;5048021;28;19928;-74
2022/07/15 09:53:25;;;;;;;;;;;;;;;-144.99;45.07;52097.53;5048536;28;19928;-75
2022/07/15 09:55:53;;;;;;;;;;;;;;;-144.99;45.18;52170.91;5048038;28;19928;-75
2022/07/15 09:58:20;;;;;;;;;;;;;;;-144.99;45.57;52146.44;5054802;28;19925;-75
2022/07/15 10:00:47;;;;;;;;;;;;;;;-144.99;45.72;52142.38;5059177;28;19971;-75
2022/07/15 10:03:14;;;;;;;;;;;;;;;-144.99;45.84;52146.44;5059662;28;20011;-75
2022/07/15 10:05:41;;;;;;;;;;;;;;;-144.99;45.37;52162.75;5058585;28;20055;-76
2022/07/15 10:08:10;;;;;;;;;;;;;;;-144.99;44.32;52158.66;5054264;28;19925;-75
2022/07/15 10:10:37;;;;;;;;;;;;;;;-144.99;44.91;52162.75;5056037;28;20277;-76
2022/07/15 10:13:10;;;;;;;;;;;;;;;-144.99;44.99;52109.75;5047785;28;19976;-75
2022/07/15 10:15:45;;;;;;;;;;;;;;;-144.99;44.24;52101.59;5046712;28;19964;-76
2022/07/15 10:18:31;;;;;;;;;;;;;;;-144.99;44.61;52134.22;5057735;28;19963;-76
2022/07/15 10:21:09;;;;;;;;;;;;;;;-144.99;44.14;52174.97;5051781;28;19925;-76
2022/07/15 10:23:44;;;;;;;;;;;;;;;-144.99;44.55;52170.91;4690027;28;10000081;-75
2022/07/15 10:26:18;;;;;;;;;;;;;;;-144.99;44.88;52146.44;5046678;28;19971;-74
2022/07/15 10:28:50;;;;;;;;;;;;;;;-144.99;45.50;52191.28;5040217;28;20029;-75
2022/07/15 10:31:18;;;;;;;;;;;;;;;-144.99;45.40;52179.06;5055312;28;19925;-75
2022/07/15 10:34:00;;;;;;;;;;;;;;;-144.99;45.55;52162.75;5052775;28;19925;-75
2022/07/15 10:36:27;;;;;;;;;;;;;;;-144.99;45.91;52197.41;5051195;28;19925;-77
2022/07/15 10:39:03;;;;;;;;;;;;;;;-144.99;46.01;52117.91;5058979;28;19960;-74
2022/07/15 10:41:48;;;;;;;;;;;;;;;-144.99;45.21;52105.69;5042005;28;19924;-76
2022/07/15 10:44:16;;;;;;;;;;;;;;;-144.99;45.50;52111.78;5055967;28;19952;-74
2022/07/15 10:46:43;;;;;;;;;;;;;;;-144.99;44.51;52069.00;5050191;28;19936;-75
2022/07/15 10:49:29;;;;;;;;;;;;;;;-144.99;44.63;52150.53;5055084;28;19986;-75
2022/07/15 10:51:56;;;;;;;;;;;;;;;-144.99;44.66;52126.06;5046453;28;20024;-75
2022/07/15 10:54:38;;;;;;;;;;;;;;;-144.99;44.86;52150.53;5050686;28;19924;-75
2022/07/15 10:57:05;;;;;;;;;;;;;;;-144.99;45.06;52038.44;5051544;28;19933;-75
2022/07/15 10:59:37;;;;;;;;;;;;;;;-144.99;44.75;52064.91;5055819;28;19959;-75
2022/07/15 11:02:14;;;;;;;;;;;;;;;-144.99;44.90;52087.34;5047555;28;19933;-75
2022/07/15 11:04:42;;;;;;;;;;;;;;;-144.99;44.47;52126.06;5063125;28;19928;-75
2022/07/15 11:07:24;;;;;;;;;;;;;;;-144.99;44.76;52052.69;5053856;28;20418;-75
2022/07/15 11:09:52;;;;;;;;;;;;;;;-144.99;44.76;52081.22;5040846;28;19960;-75
2022/07/15 11:12:19;;;;;;;;;;;;;;;-144.99;43.59;52146.44;5044874;28;19929;-75
2022/07/15 11:14:49;;;;;;;;;;;;;;;-144.99;43.35;52121.97;5045949;28;20117;-74
2022/07/15 11:17:17;;;;;;;;;;;;;;;-144.99;43.44;52126.06;5056805;28;19929;-75
2022/07/15 11:19:47;;;;;;;;;;;;;;;-144.99;43.56;52097.53;5054446;28;20309;-76
2022/07/15 11:22:13;;;;;;;;;;;;;;;-144.99;43.53;52081.22;5044707;28;20031;-76
2022/07/15 11:24:40;;;;;;;;;;;;;;;-144.99;43.62;52117.91;5042166;28;19948;-75
2022/07/15 11:27:06;;;;;;;;;;;;;;;-144.99;43.50;52077.16;5055021;28;20043;-74
2022/07/15 11:29:43;;;;;;;;;;;;;;;-144.99;43.17;52109.75;5050743;28;19932;-75
2022/07/15 11:32:12;;;;;;;;;;;;;;;-144.99;43.49;52140.31;5045099;28;20311;-75
2022/07/15 11:34:42;;;;;;;;;;;;;;;-144.99;43.66;52121.97;5046620;28;19964;-75
2022/07/15 11:37:10;;;;;;;;;;;;;;;-144.99;42.26;52054.72;5051854;28;19977;-75
2022/07/15 11:39:37;;;;;;;;;;;;;;;-144.99;42.13;52020.09;5053404;28;19932;-74
2022/07/15 11:44:48;;;;;;;;;;;;;;;-144.99;41.53;52052.69;5048297;28;19938;-75
2022/07/15 11:47:16;;;;;;;;;;;;;;;-144.99;41.34;52040.47;5047464;28;20682;-74
2022/07/15 11:49:43;;;;;;;;;;;;;;;-144.99;41.58;52081.22;5053397;28;19924;-74
2022/07/15 11:52:12;;;;;;;;;;;;;;;-144.99;42.02;52097.53;5049495;28;20047;-74
2022/07/15 11:54:39;;;;;;;;;;;;;;;-144.99;42.73;52134.22;5049849;28;19982;-74
2022/07/15 11:57:07;;;;;;;;;;;;;;;-144.99;43.66;52113.84;5055264;28;19924;-74
2022/07/15 11:59:33;;;;;;;;;;;;;;;-144.99;44.97;52126.06;5045665;28;20364;-75
2022/07/15 12:02:00;;;;;;;;;;;;;;;-144.99;44.53;52048.63;5046651;28;19952;-75
2022/07/15 12:04:29;;;;;;;;;;;;;;;-144.99;44.04;52095.50;5038904;28;19995;-75
2022/07/15 12:06:55;;;;;;;;;;;;;;;-144.99;43.35;52134.22;5050713;28;19933;-74
2022/07/15 12:09:22;;;;;;;;;;;;;;;-144.99;42.93;52154.59;5044943;28;19951;-75
2022/07/15 12:11:48;;;;;;;;;;;;;;;-144.99;42.31;52052.69;5045664;28;20291;-74
2022/07/15 12:14:20;;;;;;;;;;;;;;;-144.99;42.28;52113.84;5048753;28;20022;-75
2022/07/15 12:16:48;;;;;;;;;;;;;;;-144.99;41.93;52121.97;5050490;28;20305;-76
2022/07/15 12:19:15;;;;;;;;;;;;;;;-144.99;41.94;52130.13;5055444;28;19929;-75
2022/07/15 12:21:44;;;;;;;;;;;;;;;-144.99;41.47;52064.91;5046504;28;19932;-76
2022/07/15 12:24:12;;;;;;;;;;;;;;;-144.99;41.00;52103.66;5049372;28;19982;-74
2022/07/15 12:26:40;;;;;;;;;;;;;;;-144.99;41.33;52103.66;5029325;28;19940;-74
2022/07/15 12:29:08;;;;;;;;;;;;;;;-144.99;41.14;52117.91;5049424;28;19929;-74
2022/07/15 12:31:35;;;;;;;;;;;;;;;-144.99;41.56;52060.84;5049158;28;19978;-74
2022/07/15 12:34:02;;;;;;;;;;;;;;;-144.99;40.63;52093.44;5057145;28;19981;-74
2022/07/15 12:36:29;;;;;;;;;;;;;;;-144.99;41.11;52040.47;5053979;28;19956;-75
2022/07/15 12:39:18;;;;;;;;;;;;;;;-144.99;40.87;52056.78;5051678;28;20596;-75